Time;durP1;ratioP1;P1;durP2;ratioP2;P2;SDS_P1;SDS_P2;PMS_P1;PMS_P2;Temp;Humidity;BMP_temperature;BMP_pressure;BME280_temperature;BME280_humidity;BME280_pressure;Samples;Min_cycle;Max_cycle;Signal;HPM_P1;HPM_P2
2022/12/15 00:42:07;;;;;;;0.25;0.25;;;;;;;-7.71;100.00;100814.13;10491360;28;20400;-81
2022/12/15 00:47:08;;;;;;;0.00;0.00;;;;;;;-7.81;100.00;100807.34;10488260;28;20071;-81
2022/12/15 01:24:15;;;;;;;0.10;0.10;;;;;;;-7.96;100.00;100820.84;10476932;28;20049;-81
2022/12/15 01:29:17;;;;;;;0.32;0.32;;;;;;;-7.92;100.00;100827.03;10489337;28;20127;-81
2022/12/15 01:34:18;;;;;;;0.00;0.00;;;;;;;-7.98;100.00;100828.19;10479410;28;20041;-81
2022/12/15 01:39:21;;;;;;;0.00;0.00;;;;;;;-8.02;100.00;100831.13;10458124;28;20095;-81
2022/12/15 01:44:23;;;;;;;0.10;0.10;;;;;;;-8.04;100.00;100831.72;10496217;28;20557;-81
2022/12/15 01:49:30;;;;;;;0.10;0.10;;;;;;;-8.16;100.00;100842.28;10479563;28;20139;-81
2022/12/15 01:54:39;;;;;;;4.78;3.50;;;;;;;-8.53;100.00;100842.75;10475836;28;20044;-81
2022/12/15 01:59:49;;;;;;;0.13;0.13;;;;;;;-8.45;100.00;100836.88;10449882;28;20047;-81
2022/12/15 02:04:55;;;;;;;1.45;1.08;;;;;;;-8.43;100.00;100842.88;10463637;28;20036;-81
2022/12/15 02:10:00;;;;;;;0.10;0.10;;;;;;;-8.22;100.00;100848.25;10478347;28;20139;-81
2022/12/15 02:15:23;;;;;;;0.15;0.15;;;;;;;-8.24;100.00;100847.25;10494607;28;20496;-82
2022/12/15 02:20:39;;;;;;;0.35;0.35;;;;;;;-8.29;100.00;100852.66;10483549;28;20496;-81
2022/12/15 02:26:05;;;;;;;0.73;0.73;;;;;;;-8.43;100.00;100849.50;10465098;28;20051;-81
2022/12/15 02:36:42;;;;;;;0.00;0.00;;;;;;;-8.13;100.00;100856.69;10488121;28;20640;-80
2022/12/15 02:41:46;;;;;;;1.92;1.42;;;;;;;-8.18;100.00;100860.34;10453594;28;20543;-81
2022/12/15 02:47:15;;;;;;;0.38;0.38;;;;;;;-8.61;100.00;100864.44;10498110;28;20045;-81
2022/12/15 02:52:41;;;;;;;0.40;0.40;;;;;;;-8.59;100.00;100857.09;10442268;28;20040;-81
2022/12/15 02:58:09;;;;;;;0.00;0.00;;;;;;;-8.24;100.00;100858.13;10481370;28;20136;-82
2022/12/15 03:03:19;;;;;;;2.35;1.52;;;;;;;-7.97;100.00;100857.47;10493554;28;20040;-81
2022/12/15 03:08:21;;;;;;;0.50;0.50;;;;;;;-8.16;100.00;100857.25;10481037;28;20082;-82
2022/12/15 03:13:24;;;;;;;2.50;2.10;;;;;;;-8.32;100.00;100872.34;10497395;28;20045;-82
2022/12/15 03:18:26;;;;;;;1.55;1.45;;;;;;;-8.15;100.00;100878.13;10480718;28;20109;-81
2022/12/15 03:23:28;;;;;;;2.15;2.05;;;;;;;-8.00;100.00;100884.66;10480956;28;20045;-81
2022/12/15 03:28:32;;;;;;;0.00;0.00;;;;;;;-7.95;100.00;100887.63;10480189;28;20044;-81
2022/12/15 03:33:33;;;;;;;0.10;0.10;;;;;;;-8.18;100.00;100882.84;10479638;28;20045;-81
2022/12/15 03:38:35;;;;;;;0.10;0.10;;;;;;;-8.05;100.00;100890.84;10480203;28;20040;-81
2022/12/15 03:43:37;;;;;;;0.10;0.10;;;;;;;-7.94;100.00;100893.53;10497247;28;20094;-82
2022/12/15 03:48:39;;;;;;;0.10;0.10;;;;;;;-7.95;100.00;100901.75;10477522;28;20049;-81
2022/12/15 03:53:40;;;;;;;0.00;0.00;;;;;;;-8.26;100.00;100904.56;10492797;28;20048;-80
2022/12/15 03:58:42;;;;;;;0.32;0.32;;;;;;;-8.27;100.00;100902.81;10464645;28;20072;-80
2022/12/15 04:03:44;;;;;;;0.25;0.25;;;;;;;-8.23;100.00;100909.00;10480752;28;20335;-79
2022/12/15 04:08:48;;;;;;;0.10;0.10;;;;;;;-8.22;100.00;100905.75;10466901;28;20491;-80
2022/12/15 04:13:50;;;;;;;0.00;0.00;;;;;;;-8.16;100.00;100903.91;10483838;28;20059;-81
2022/12/15 04:20:07;;;;;;;0.00;0.00;;;;;;;-8.07;100.00;100904.78;10477922;28;20056;-80
2022/12/15 05:33:38;;;;;;;0.10;0.10;;;;;;;-8.23;100.00;100924.88;10463233;28;20068;-81
2022/12/15 05:38:39;;;;;;;0.10;0.10;;;;;;;-8.41;100.00;100923.03;10460280;28;20037;-82
2022/12/15 05:43:44;;;;;;;0.75;0.75;;;;;;;-8.35;100.00;100928.66;10466707;28;20161;-82
2022/12/15 05:48:46;;;;;;;0.10;0.10;;;;;;;-8.22;100.00;100935.75;10480743;28;20392;-82
2022/12/15 05:53:47;;;;;;;0.25;0.25;;;;;;;-8.13;100.00;100931.69;10463012;28;20542;-82
2022/12/15 05:58:49;;;;;;;4.05;2.20;;;;;;;-8.31;100.00;100940.72;10452611;28;20045;-80
2022/12/15 06:03:51;;;;;;;2.25;2.05;;;;;;;-8.13;100.00;100944.19;10466098;28;20083;-82
2022/12/15 06:08:53;;;;;;;0.30;0.30;;;;;;;-7.92;100.00;100959.56;10470398;28;20049;-82
2022/12/15 06:13:55;;;;;;;0.15;0.15;;;;;;;-7.93;100.00;100970.31;10472255;28;20086;-82
2022/12/15 06:18:59;;;;;;;0.10;0.10;;;;;;;-7.87;100.00;100980.94;10479096;28;20059;-82
2022/12/15 06:24:05;;;;;;;0.17;0.17;;;;;;;-7.97;100.00;100974.13;10478308;28;20456;-81
2022/12/15 06:29:09;;;;;;;0.00;0.00;;;;;;;-7.89;100.00;100982.38;10469118;28;20040;-82
2022/12/15 06:34:14;;;;;;;0.10;0.10;;;;;;;-7.87;100.00;100993.44;10464343;28;20036;-82
2022/12/15 06:39:16;;;;;;;0.32;0.32;;;;;;;-7.88;100.00;100989.16;10446507;28;20052;-82
2022/12/15 06:44:18;;;;;;;0.00;0.00;;;;;;;-7.98;100.00;100984.88;10478078;28;20072;-83
2022/12/15 06:49:21;;;;;;;2.60;2.40;;;;;;;-7.86;100.00;100997.72;10496394;28;20400;-82
2022/12/15 06:54:22;;;;;;;0.00;0.00;;;;;;;-7.84;100.00;101006.25;10477518;28;20037;-81
2022/12/15 06:59:24;;;;;;;0.00;0.00;;;;;;;-7.72;100.00;100997.50;10473615;28;20138;-81
2022/12/15 07:04:26;;;;;;;0.20;0.20;;;;;;;-7.83;100.00;100993.00;10447083;28;20037;-81
2022/12/15 07:09:28;;;;;;;0.65;0.65;;;;;;;-7.66;100.00;100998.09;10477916;28;20053;-82
2022/12/15 07:14:29;;;;;;;0.10;0.10;;;;;;;-7.78;100.00;100996.84;10463411;28;20029;-81
2022/12/15 07:19:31;;;;;;;0.10;0.10;;;;;;;-7.87;100.00;101000.94;10476984;28;20045;-81
2022/12/15 07:24:33;;;;;;;0.10;0.10;;;;;;;-7.90;100.00;101018.13;10461297;28;20044;-82
2022/12/15 07:29:34;;;;;;;1.58;1.15;;;;;;;-7.78;100.00;101026.00;10462891;28;20056;-82
2022/12/15 07:34:36;;;;;;;0.90;0.90;;;;;;;-8.01;100.00;101020.44;10473545;28;20045;-82
2022/12/15 07:39:37;;;;;;;1.65;1.55;;;;;;;-7.86;100.00;101027.72;10483734;28;20044;-83
2022/12/15 07:44:39;;;;;;;0.38;0.38;;;;;;;-7.83;100.00;101043.03;10476336;28;20090;-82
2022/12/15 07:49:41;;;;;;;1.65;1.55;;;;;;;-7.78;100.00;101051.88;10470565;28;20048;-82
2022/12/15 07:54:44;;;;;;;0.45;0.45;;;;;;;-7.73;100.00;101050.75;10444462;28;20072;-82
2022/12/15 07:59:46;;;;;;;1.20;1.10;;;;;;;-7.71;100.00;101049.31;10458643;28;20536;-81
2022/12/15 08:04:47;;;;;;;0.43;0.40;;;;;;;-7.67;100.00;101058.88;10452874;28;20055;-82
2022/12/15 08:09:49;;;;;;;0.40;0.40;;;;;;;-7.61;100.00;101065.22;10471271;28;20049;-82
2022/12/15 08:14:51;;;;;;;0.20;0.20;;;;;;;-7.47;100.00;101069.13;10466945;28;20041;-82
2022/12/15 08:19:52;;;;;;;0.08;0.08;;;;;;;-7.48;100.00;101080.72;10453930;28;20530;-82
2022/12/15 08:24:59;;;;;;;0.98;0.90;;;;;;;-7.29;100.00;101075.06;10468224;28;20132;-81
2022/12/15 08:30:00;;;;;;;0.32;0.32;;;;;;;-7.21;100.00;101079.22;10458971;28;20074;-82
2022/12/15 08:35:02;;;;;;;0.20;0.20;;;;;;;-7.10;100.00;101072.78;10462036;28;20411;-82
2022/12/15 08:40:05;;;;;;;1.77;1.65;;;;;;;-7.01;100.00;101084.59;10472136;28;20492;-82
2022/12/15 08:45:08;;;;;;;0.95;0.95;;;;;;;-6.89;100.00;101094.06;10460015;28;20041;-82
2022/12/15 08:50:09;;;;;;;0.10;0.10;;;;;;;-6.76;100.00;101087.00;10497770;28;20041;-83
2022/12/15 08:55:11;;;;;;;0.10;0.10;;;;;;;-6.68;100.00;101094.38;10484828;28;20446;-82
2022/12/15 09:00:21;;;;;;;2.50;2.30;;;;;;;-6.50;100.00;101088.66;10467287;28;20052;-83
2022/12/15 09:05:24;;;;;;;1.13;1.08;;;;;;;-6.39;100.00;101099.72;10475526;28;20053;-83
2022/12/15 09:10:25;;;;;;;1.10;1.08;;;;;;;-6.29;100.00;101097.38;10474529;28;20079;-83
2022/12/15 09:15:27;;;;;;;0.10;0.10;;;;;;;-6.21;100.00;101090.56;10480415;28;20048;-83
2022/12/15 09:20:49;;;;;;;1.42;1.33;;;;;;;-5.96;100.00;101106.31;10473780;28;20055;-79
2022/12/15 09:25:57;;;;;;;0.73;0.73;;;;;;;-5.89;100.00;101100.25;10484569;28;20127;-79
2022/12/15 09:31:19;;;;;;;0.10;0.10;;;;;;;-5.72;100.00;101104.34;10494922;28;20048;-79
2022/12/15 09:36:22;;;;;;;0.35;0.35;;;;;;;-5.66;100.00;101109.94;10492586;28;20404;-80
2022/12/15 09:41:28;;;;;;;0.00;0.00;;;;;;;-5.48;100.00;101120.84;10467352;28;20147;-79
2022/12/15 09:46:52;;;;;;;9.95;4.57;;;;;;;-5.36;100.00;101116.06;10482301;28;20040;-79
2022/12/15 09:52:04;;;;;;;3.65;3.40;;;;;;;-5.17;100.00;101123.66;10467871;28;20052;-80
2022/12/15 09:57:41;;;;;;;3.00;1.35;;;;;;;-4.99;100.00;101121.09;10487318;28;20037;-80
2022/12/15 10:03:11;;;;;;;6.70;1.40;;;;;;;-4.97;100.00;101117.09;10481648;28;20492;-80
2022/12/15 10:08:14;;;;;;;1.55;1.45;;;;;;;-4.86;100.00;101115.56;10449774;28;20059;-81
2022/12/15 10:13:57;;;;;;;1.40;1.33;;;;;;;-4.79;100.00;101113.72;10455938;28;20053;-81
2022/12/15 10:19:15;;;;;;;1.02;1.02;;;;;;;-4.57;100.00;101110.63;10465897;28;20045;-82
2022/12/15 10:24:20;;;;;;;0.63;0.63;;;;;;;-4.38;100.00;101114.81;10482703;28;20127;-82
2022/12/15 10:29:59;;;;;;;0.28;0.28;;;;;;;-4.22;100.00;101117.94;10453361;28;20044;-83
2022/12/15 10:35:07;;;;;;;0.85;0.85;;;;;;;-4.06;100.00;101124.31;10446427;28;20037;-82
2022/12/15 10:40:14;;;;;;;0.30;0.30;;;;;;;-3.75;100.00;101110.25;10446273;28;20546;-83
2022/12/15 10:45:34;;;;;;;3.65;2.30;;;;;;;-3.14;100.00;101105.28;10468009;28;20048;-83
2022/12/15 10:50:36;;;;;;;1.45;1.38;;;;;;;-2.74;100.00;101106.06;10470364;28;20546;-83
2022/12/15 10:55:40;;;;;;;0.10;0.10;;;;;;;-2.71;100.00;101097.13;10459968;28;20094;-82
2022/12/15 11:00:42;;;;;;;0.90;0.63;;;;;;;-2.48;100.00;101087.13;10498859;28;20044;-83
2022/12/15 11:05:55;;;;;;;1.95;1.85;;;;;;;-2.39;100.00;101080.31;10457390;28;20127;-84
2022/12/15 11:16:18;;;;;;;1.75;1.42;;;;;;;-2.29;100.00;101066.78;10440700;28;20051;-83
2022/12/15 11:21:26;;;;;;;3.90;2.65;;;;;;;-1.96;100.00;101058.50;10447831;28;20053;-84
2022/12/15 11:26:47;;;;;;;1.10;1.08;;;;;;;-1.95;100.00;101040.06;10465667;28;20048;-85
2022/12/15 11:31:51;;;;;;;1.08;1.08;;;;;;;-1.43;100.00;101032.22;10464666;28;20049;-84
2022/12/15 11:37:42;;;;;;;2.85;2.22;;;;;;;-1.38;100.00;101028.41;10471083;28;20051;-84
2022/12/15 11:43:18;;;;;;;0.20;0.20;;;;;;;-1.26;100.00;101030.09;10468386;28;20082;-84
2022/12/15 11:48:26;;;;;;;0.88;0.50;;;;;;;-1.41;100.00;101005.41;10444714;28;20455;-84
2022/12/15 11:53:54;;;;;;;0.43;0.43;;;;;;;-0.91;100.00;101009.97;10447876;28;20052;-85
2022/12/15 11:59:08;;;;;;;1.75;0.60;;;;;;;-1.10;100.00;101012.78;10466648;28;20040;-84
2022/12/15 12:04:27;;;;;;;1.60;1.50;;;;;;;-0.70;100.00;100998.00;10460980;28;20492;-85
2022/12/15 12:09:45;;;;;;;1.75;1.65;;;;;;;-0.77;100.00;100995.78;10461402;28;20053;-84
2022/12/15 12:14:58;;;;;;;0.93;0.93;;;;;;;-0.68;100.00;100993.94;10455012;28;20415;-84
2022/12/15 12:20:04;;;;;;;;;;;;;;;-0.67;100.00;100990.63;10484746;28;20053;-85
2022/12/15 12:25:19;;;;;;;1.27;1.20;;;;;;;-0.73;100.00;100977.53;10495300;28;19924;-85
2022/12/15 12:30:26;;;;;;;1.27;1.27;;;;;;;-1.00;100.00;100978.94;10501326;28;20140;-85
2022/12/15 12:35:40;;;;;;;7.22;3.38;;;;;;;-0.89;100.00;100977.19;10475076;28;20758;-84
2022/12/15 12:41:02;;;;;;;0.68;0.68;;;;;;;-0.49;100.00;100962.38;10487015;28;20051;-85
2022/12/15 12:46:14;;;;;;;1.55;1.45;;;;;;;0.04;100.00;100958.44;10482136;28;20052;-85
2022/12/15 12:51:26;;;;;;;0.70;0.70;;;;;;;-0.01;100.00;100956.44;10478251;28;20029;-86
2022/12/15 12:56:44;;;;;;;0.73;0.73;;;;;;;0.07;100.00;100954.47;10479116;28;20440;-85
2022/12/15 13:01:51;;;;;;;1.20;1.10;;;;;;;0.55;100.00;100939.94;10478598;28;20048;-86
2022/12/15 13:07:06;;;;;;;0.93;0.93;;;;;;;-0.12;100.00;100944.72;10496793;28;20101;-86
2022/12/15 13:12:58;;;;;;;3.30;1.30;;;;;;;0.08;100.00;100945.19;10487913;28;20071;-85
2022/12/15 13:18:19;;;;;;;0.52;0.52;;;;;;;0.27;100.00;100938.06;10456103;28;20068;-84
2022/12/15 13:23:21;;;;;;;2.47;1.70;;;;;;;-0.30;100.00;100925.69;10485328;28;20551;-85
2022/12/15 13:28:28;;;;;;;1.20;0.80;;;;;;;-0.07;100.00;100910.44;10481767;28;20322;-85
2022/12/15 13:33:51;;;;;;;2.97;1.65;;;;;;;-0.13;100.00;100910.03;10479497;28;20078;-85
2022/12/15 13:38:54;;;;;;;1.23;1.00;;;;;;;-0.26;100.00;100900.69;10476845;28;20126;-84
2022/12/15 13:43:59;;;;;;;1.27;1.17;;;;;;;-0.23;100.00;100910.16;10465403;28;20044;-83
2022/12/15 13:49:12;;;;;;;1.25;1.15;;;;;;;-0.46;100.00;100908.56;10478543;28;20040;-84
2022/12/15 13:54:20;;;;;;;0.75;0.57;;;;;;;-0.57;100.00;100905.25;10476570;28;20055;-83
2022/12/15 13:59:29;;;;;;;8.25;3.60;;;;;;;-0.94;100.00;100902.63;10491295;28;20052;-83
2022/12/15 14:04:31;;;;;;;0.15;0.15;;;;;;;-0.88;100.00;100900.53;10493329;28;20044;-83
2022/12/15 14:09:37;;;;;;;1.52;0.90;;;;;;;-0.79;100.00;100903.75;10492967;28;20466;-83
2022/12/15 14:14:45;;;;;;;1.55;1.23;;;;;;;-0.66;100.00;100902.94;10457675;28;20078;-83
2022/12/15 14:19:49;;;;;;;1.00;1.00;;;;;;;-0.72;100.00;100888.22;10458539;28;20149;-81
2022/12/15 14:25:17;;;;;;;0.22;0.22;;;;;;;-0.72;100.00;100903.41;10466901;28;20480;-81
2022/12/15 14:30:31;;;;;;;2.92;1.33;;;;;;;-0.68;100.00;100920.56;10467227;28;20044;-81
2022/12/15 14:35:41;;;;;;;0.35;0.35;;;;;;;-0.88;100.00;100929.22;10469700;28;20496;-82
2022/12/15 14:40:45;;;;;;;1.08;0.98;;;;;;;-1.05;100.00;100925.50;10467126;28;20055;-82
2022/12/15 14:46:04;;;;;;;2.20;1.88;;;;;;;-1.40;100.00;100916.19;10506490;28;20048;-82
2022/12/15 14:51:11;;;;;;;3.58;3.08;;;;;;;-1.66;100.00;100912.59;10470300;28;20042;-82
2022/12/15 14:56:19;;;;;;;1.30;1.20;;;;;;;-1.75;100.00;100929.59;10481644;28;20561;-82
2022/12/15 15:01:29;;;;;;;0.95;0.95;;;;;;;-1.79;100.00;100928.47;10477934;28;20053;-82
2022/12/15 15:06:35;;;;;;;3.10;1.95;;;;;;;-1.78;100.00;100921.78;10463003;28;20408;-84
2022/12/15 15:11:40;;;;;;;1.80;1.52;;;;;;;-1.97;100.00;100915.31;10472363;28;20048;-82
2022/12/15 15:17:17;;;;;;;1.65;1.33;;;;;;;-2.07;100.00;100908.69;10488535;28;20035;-84
2022/12/15 15:22:34;;;;;;;0.45;0.45;;;;;;;-2.45;100.00;100919.22;10495451;28;20609;-83
2022/12/15 15:27:46;;;;;;;0.30;0.30;;;;;;;-2.53;100.00;100916.88;10464683;28;20095;-85
2022/12/15 15:32:56;;;;;;;4.90;1.92;;;;;;;-2.52;100.00;100921.16;10487299;28;20237;-85
2022/12/15 15:38:06;;;;;;;0.93;0.93;;;;;;;-2.74;100.00;100911.91;10476694;28;20071;-84
2022/12/15 15:43:13;;;;;;;0.20;0.20;;;;;;;-3.02;100.00;100932.38;10464916;28;20131;-83
2022/12/15 15:48:24;;;;;;;0.47;0.47;;;;;;;-3.09;100.00;100930.13;10501381;28;20068;-83
2022/12/15 15:53:28;;;;;;;0.25;0.25;;;;;;;-2.85;100.00;100940.41;10476958;28;20063;-80
2022/12/15 15:58:29;;;;;;;0.08;0.08;;;;;;;-2.83;100.00;100933.84;10443059;28;20049;-80
2022/12/15 16:03:33;;;;;;;0.55;0.55;;;;;;;-2.99;100.00;100932.59;10447784;28;20053;-80
2022/12/15 16:08:36;;;;;;;0.38;0.38;;;;;;;-3.10;100.00;100928.34;10447893;28;20454;-80
2022/12/15 16:13:38;;;;;;;0.63;0.50;;;;;;;-3.20;100.00;100936.78;10448192;28;20128;-80
2022/12/15 16:18:42;;;;;;;0.10;0.10;;;;;;;-3.31;100.00;100940.94;10466882;28;20037;-80
2022/12/15 16:23:46;;;;;;;0.40;0.40;;;;;;;-3.44;100.00;100945.75;10447745;28;20053;-80
2022/12/15 16:28:48;;;;;;;0.40;0.40;;;;;;;-3.83;100.00;100950.97;10448135;28;20049;-79
2022/12/15 16:33:49;;;;;;;0.45;0.45;;;;;;;-3.90;100.00;100942.78;10448232;28;20114;-79
2022/12/15 16:38:52;;;;;;;0.30;0.30;;;;;;;-4.00;100.00;100966.31;10466554;28;20391;-79
2022/12/15 16:43:53;;;;;;;0.85;0.85;;;;;;;-4.13;100.00;100969.41;10474532;28;20036;-80
2022/12/15 16:48:55;;;;;;;0.30;0.30;;;;;;;-4.16;100.00;100967.50;10460553;28;20049;-79
2022/12/15 16:53:57;;;;;;;0.50;0.50;;;;;;;-4.18;100.00;100966.47;10454112;28;20049;-80
2022/12/15 16:58:58;;;;;;;3.05;2.35;;;;;;;-4.17;100.00;100965.72;10468756;28;20074;-80
2022/12/15 17:04:21;;;;;;;1.00;1.00;;;;;;;-4.18;100.00;100976.53;10450049;28;20476;-80
2022/12/15 17:09:24;;;;;;;1.38;1.17;;;;;;;-4.04;100.00;100982.78;10451230;28;20044;-80
2022/12/15 17:14:26;;;;;;;0.00;0.00;;;;;;;-4.12;100.00;100981.22;10453921;28;20047;-80
2022/12/15 17:19:28;;;;;;;0.60;0.60;;;;;;;-4.23;100.00;100982.81;10481472;28;20058;-79
2022/12/15 17:24:29;;;;;;;0.43;0.43;;;;;;;-4.32;100.00;100992.09;10479667;28;20060;-80
2022/12/15 17:29:31;;;;;;;0.43;0.43;;;;;;;-4.55;100.00;101001.00;10519303;28;20464;-80
2022/12/15 17:34:33;;;;;;;0.63;0.63;;;;;;;-4.78;100.00;100997.34;10526024;28;20048;-79
2022/12/15 17:39:35;;;;;;;0.93;0.90;;;;;;;-4.87;100.00;100999.03;10487471;28;20044;-79
2022/12/15 17:44:38;;;;;;;6.40;1.70;;;;;;;-4.71;100.00;101018.00;10488476;28;20162;-79
2022/12/15 17:49:40;;;;;;;0.70;0.70;;;;;;;-4.59;100.00;101034.19;10489330;28;20518;-80
2022/12/15 17:54:42;;;;;;;0.40;0.40;;;;;;;-4.60;100.00;101039.97;10497150;28;20107;-79
2022/12/15 17:59:44;;;;;;;1.48;1.38;;;;;;;-4.79;100.00;101042.47;10503504;28;20044;-79
2022/12/15 18:04:46;;;;;;;0.43;0.43;;;;;;;-5.00;100.00;101056.50;10505538;28;20048;-79
2022/12/15 18:09:49;;;;;;;21.88;3.58;;;;;;;-5.07;100.00;101047.53;10503594;28;20044;-79
2022/12/15 18:14:52;;;;;;;0.20;0.20;;;;;;;-5.00;100.00;101061.50;10499801;28;20040;-80
2022/12/15 18:19:56;;;;;;;1.40;1.30;;;;;;;-4.83;100.00;101066.44;10496741;28;20044;-79
2022/12/15 18:24:58;;;;;;;0.28;0.28;;;;;;;-4.93;100.00;101078.91;10490538;28;20108;-80
2022/12/15 18:30:00;;;;;;;0.70;0.70;;;;;;;-4.83;100.00;101090.69;10505891;28;20090;-79
2022/12/15 18:35:13;;;;;;;0.55;0.55;;;;;;;-4.96;100.00;101087.06;10504306;28;20044;-80
2022/12/15 18:40:17;;;;;;;0.65;0.65;;;;;;;-5.02;100.00;101083.09;10486131;28;20045;-81
2022/12/15 18:45:24;;;;;;;0.47;0.47;;;;;;;-4.93;100.00;101094.00;10485346;28;20094;-80
2022/12/15 18:50:29;;;;;;;1.27;1.00;;;;;;;-5.04;100.00;101092.16;10486604;28;20139;-80
2022/12/15 18:55:31;;;;;;;0.20;0.20;;;;;;;-4.96;100.00;101103.78;10487470;28;20041;-81
2022/12/15 19:00:33;;;;;;;2.38;1.38;;;;;;;-5.02;100.00;101105.72;10499448;28;20044;-79
2022/12/15 19:05:36;;;;;;;0.28;0.28;;;;;;;-5.12;100.00;101109.91;10477016;28;20037;-79
2022/12/15 19:10:55;;;;;;;1.67;1.55;;;;;;;-5.24;100.00;101116.31;10482200;28;20067;-79
2022/12/15 19:15:58;;;;;;;0.10;0.10;;;;;;;-5.28;100.00;101120.16;10481869;28;20036;-80
2022/12/15 19:22:25;;;;;;;0.30;0.30;;;;;;;-5.43;100.00;101118.72;10498415;28;20053;-79
2022/12/15 19:26:48;;;;;;;9.75;3.65;;;;;;;-5.23;100.00;101128.13;10499869;28;20075;-79
2022/12/15 19:31:50;;;;;;;0.20;0.20;;;;;;;-5.22;100.00;101127.38;10483516;28;20052;-80
2022/12/15 19:36:52;;;;;;;0.73;0.73;;;;;;;-5.39;100.00;101132.47;10482699;28;20055;-80
2022/12/15 19:41:54;;;;;;;0.35;0.35;;;;;;;-5.45;100.00;101140.31;10483284;28;20049;-80
2022/12/15 19:46:56;;;;;;;0.35;0.35;;;;;;;-5.49;100.00;101144.19;10482842;28;20052;-80
2022/12/15 19:51:58;;;;;;;0.25;0.25;;;;;;;-5.63;100.00;101136.97;10482881;28;20052;-80
2022/12/15 19:57:36;;;;;;;0.00;0.00;;;;;;;-5.50;100.00;101133.97;10482103;28;20062;-80
2022/12/15 20:02:38;;;;;;;3.28;1.15;;;;;;;-5.70;100.00;101122.06;10468940;28;20056;-80
2022/12/15 20:07:41;;;;;;;0.05;0.05;;;;;;;-5.58;100.00;101113.19;10501347;28;20411;-80
2022/12/15 20:12:43;;;;;;;0.10;0.10;;;;;;;-5.90;100.00;101113.53;10481680;28;20052;-79
2022/12/15 20:17:45;;;;;;;0.80;0.80;;;;;;;-5.86;100.00;101105.56;10501584;28;20048;-80
2022/12/15 20:23:49;;;;;;;2.05;1.90;;;;;;;-5.75;100.00;101119.13;10502100;28;20064;-79
2022/12/15 20:28:53;;;;;;;0.40;0.40;;;;;;;-6.03;100.00;101115.66;10440838;28;20057;-79
2022/12/15 20:33:54;;;;;;;0.40;0.40;;;;;;;-5.97;100.00;101108.66;10460198;28;20580;-79
2022/12/15 20:45:30;;;;;;;7.43;5.05;;;;;;;-6.18;100.00;101136.00;10509289;28;20035;-79
2022/12/15 20:50:39;;;;;;;0.00;0.00;;;;;;;-5.92;100.00;101130.09;10544335;28;20130;-79
2022/12/15 20:55:41;;;;;;;0.08;0.08;;;;;;;-6.05;100.00;101118.00;10471869;28;20052;-79
2022/12/15 21:00:45;;;;;;;1.15;1.10;;;;;;;-6.00;100.00;101118.47;10515665;28;20048;-79
2022/12/15 21:05:48;;;;;;;1.98;1.67;;;;;;;-6.10;100.00;101122.59;10488361;28;20089;-79
2022/12/15 21:10:51;;;;;;;3.78;3.45;;;;;;;-6.18;100.00;101133.50;10486630;28;20518;-80
2022/12/15 21:15:53;;;;;;;3.88;3.58;;;;;;;-6.12;100.00;101146.63;10503450;28;20567;-80
2022/12/15 21:20:57;;;;;;;0.82;0.82;;;;;;;-6.27;100.00;101145.16;10495040;28;20098;-79
2022/12/15 21:26:00;;;;;;;2.10;1.95;;;;;;;-6.24;100.00;101135.44;10468170;28;20075;-79
2022/12/15 21:31:02;;;;;;;0.82;0.82;;;;;;;-6.15;100.00;101145.44;10482973;28;20095;-82
2022/12/15 21:36:04;;;;;;;0.80;0.80;;;;;;;-6.26;100.00;101151.94;10482379;28;20095;-82
2022/12/15 21:41:14;;;;;;;0.80;0.80;;;;;;;-6.45;100.00;101159.28;10470286;28;20589;-82
2022/12/15 21:46:17;;;;;;;;;;;;;;;-6.66;100.00;101148.94;10485719;28;20041;-82
2022/12/15 21:51:25;;;;;;;0.40;0.40;;;;;;;-6.73;100.00;101144.91;10470771;28;20342;-82
2022/12/15 21:56:27;;;;;;;2.55;1.65;;;;;;;-7.20;100.00;101151.13;10467542;28;20071;-82
2022/12/15 22:01:30;;;;;;;0.68;0.68;;;;;;;-6.91;100.00;101150.63;10479199;28;20470;-82
2022/12/15 22:06:32;;;;;;;0.10;0.10;;;;;;;-6.54;100.00;101140.09;10467218;28;20048;-82
2022/12/15 22:11:33;;;;;;;0.47;0.47;;;;;;;-6.20;100.00;101141.63;10459000;28;20082;-82
2022/12/15 22:16:35;;;;;;;0.00;0.00;;;;;;;-6.08;100.00;101153.72;10501688;28;20171;-82
2022/12/15 22:21:37;;;;;;;0.00;0.00;;;;;;;-5.98;100.00;101159.56;10485349;28;20041;-82
2022/12/15 22:26:40;;;;;;;6.15;3.45;;;;;;;-5.82;100.00;101172.84;10464440;28;20037;-81
2022/12/15 22:31:42;;;;;;;0.00;0.00;;;;;;;-5.53;100.00;101182.28;10472156;28;20049;-81
2022/12/15 22:36:44;;;;;;;0.32;0.32;;;;;;;-5.36;100.00;101175.44;10471360;28;20036;-81
2022/12/15 22:41:49;;;;;;;2.13;2.03;;;;;;;-5.26;100.00;101178.97;10458382;28;20505;-82
2022/12/15 22:46:53;;;;;;;1.05;0.95;;;;;;;-5.15;100.00;101177.44;10475732;28;20083;-82
2022/12/15 22:51:55;;;;;;;0.25;0.25;;;;;;;-5.06;100.00;101167.38;10452749;28;20050;-82
2022/12/15 22:57:04;;;;;;;2.92;2.72;;;;;;;-4.97;100.00;101169.88;10470122;28;20040;-82
2022/12/15 23:02:07;;;;;;;2.28;1.92;;;;;;;-4.82;100.00;101162.84;10464635;28;20044;-81
2022/12/15 23:07:13;;;;;;;0.10;0.10;;;;;;;-4.75;100.00;101171.84;10469641;28;20049;-81
2022/12/15 23:12:15;;;;;;;0.15;0.15;;;;;;;-4.80;100.00;101162.22;10481585;28;20052;-80
2022/12/15 23:17:17;;;;;;;0.00;0.00;;;;;;;-4.78;100.00;101155.72;10459513;28;20045;-81
2022/12/15 23:22:19;;;;;;;1.35;1.27;;;;;;;-4.67;100.00;101161.72;10480423;28;20048;-81
2022/12/15 23:27:20;;;;;;;0.20;0.20;;;;;;;-4.59;100.00;101157.41;10466621;28;20082;-81
2022/12/15 23:32:22;;;;;;;0.00;0.00;;;;;;;-4.48;100.00;101160.88;10511210;28;20044;-81
2022/12/15 23:37:24;;;;;;;1.80;1.35;;;;;;;-4.33;100.00;101176.47;10485484;28;20087;-81
2022/12/15 23:42:26;;;;;;;1.52;0.95;;;;;;;-4.26;100.00;101175.41;10473824;28;20053;-81
2022/12/15 23:47:28;;;;;;;0.08;0.08;;;;;;;-4.19;100.00;101155.94;10497437;28;20405;-82
2022/12/15 23:52:29;;;;;;;0.13;0.13;;;;;;;-4.13;100.00;101159.75;10492733;28;20051;-81
2022/12/15 23:57:32;;;;;;;2.75;2.55;;;;;;;-4.05;100.00;101156.28;10479820;28;20095;-81
